Time;durP1;ratioP1;P1;durP2;ratioP2;P2;SDS_P1;SDS_P2;PMS_P1;PMS_P2;Temp;Humidity;BMP_temperature;BMP_pressure;BME280_temperature;BME280_humidity;BME280_pressure;Samples;Min_cycle;Max_cycle;Signal;HPM_P1;HPM_P2
2021/12/15 00:01:06;;;;;;;48.95;21.55;;;;;;;9.64;100.00;102591.69;5027844;28;20128;-73
2021/12/15 00:03:34;;;;;;;26.73;8.88;;;;;;;9.62;100.00;102588.47;5027268;28;20045;-73
2021/12/15 00:06:02;;;;;;;49.60;22.48;;;;;;;9.60;100.00;102585.22;5043544;28;20072;-75
2021/12/15 00:08:29;;;;;;;22.35;8.02;;;;;;;9.62;100.00;102592.03;5030784;28;20045;-71
2021/12/15 00:10:56;;;;;;;46.17;20.35;;;;;;;9.68;100.00;102593.41;5026550;28;20177;-72
2021/12/15 00:13:23;;;;;;;20.95;9.18;;;;;;;9.67;100.00;102591.81;5020405;28;20568;-74
2021/12/15 00:15:50;;;;;;;54.78;23.80;;;;;;;9.72;100.00;102594.31;5022649;28;20076;-72
2021/12/15 00:18:16;;;;;;;31.83;12.48;;;;;;;9.68;100.00;102598.94;5027258;28;20063;-72
2021/12/15 00:20:43;;;;;;;35.38;15.60;;;;;;;9.67;100.00;102591.00;5028926;28;20140;-72
2021/12/15 00:23:10;;;;;;;52.33;22.83;;;;;;;9.74;100.00;102597.56;5027282;28;20492;-72
2021/12/15 00:25:39;;;;;;;55.42;23.10;;;;;;;9.74;100.00;102592.03;5026793;28;20056;-71
2021/12/15 00:28:07;;;;;;;51.17;22.55;;;;;;;9.72;100.00;102593.53;5029053;28;20041;-71
2021/12/15 00:30:34;;;;;;;52.75;23.83;;;;;;;9.75;100.00;102595.59;5027536;28;20521;-71
2021/12/15 00:33:02;;;;;;;52.22;23.52;;;;;;;9.77;100.00;102596.06;5036021;28;20049;-73
2021/12/15 00:35:28;;;;;;;51.63;20.08;;;;;;;9.71;100.00;102589.97;5044123;28;20045;-73
2021/12/15 00:37:55;;;;;;;50.13;21.02;;;;;;;9.72;100.00;102593.53;5037765;28;20143;-72
2021/12/15 00:40:24;;;;;;;55.20;23.23;;;;;;;9.72;100.00;102597.09;5031378;28;20063;-74
2021/12/15 00:42:51;;;;;;;51.33;22.15;;;;;;;9.72;100.00;102597.09;5035524;28;20112;-74
2021/12/15 00:45:18;;;;;;;27.60;11.10;;;;;;;9.68;100.00;102606.41;5030527;28;20417;-75
2021/12/15 00:47:46;;;;;;;43.40;20.27;;;;;;;9.70;100.00;102601.34;5028284;28;20053;-72
2021/12/15 00:50:15;;;;;;;24.70;11.20;;;;;;;9.64;100.00;102599.97;5029703;28;20581;-75
2021/12/15 00:52:44;;;;;;;43.38;20.20;;;;;;;9.69;100.00;102594.22;5016892;28;20078;-74
2021/12/15 00:55:16;;;;;;;49.78;22.02;;;;;;;9.68;100.00;102582.34;5028841;28;20056;-74
2021/12/15 00:57:43;;;;;;;41.85;17.23;;;;;;;9.66;100.00;102589.38;5028355;28;20148;-74
2021/12/15 01:00:17;;;;;;;16.02;6.97;;;;;;;9.66;100.00;102590.16;5028114;28;20057;-72
2021/12/15 01:02:44;;;;;;;36.70;14.85;;;;;;;9.68;100.00;102578.78;5026087;28;20121;-72
2021/12/15 01:05:15;;;;;;;18.98;7.28;;;;;;;9.67;100.00;102585.47;5025448;28;20394;-73
2021/12/15 01:07:42;;;;;;;40.58;18.17;;;;;;;9.72;100.00;102588.78;5026674;28;20049;-73
2021/12/15 01:10:13;;;;;;;12.55;4.82;;;;;;;9.65;100.00;102585.81;5020907;28;20041;-73
2021/12/15 01:21:17;;;;;;;43.85;18.45;;;;;;;9.72;100.00;102588.78;5022864;28;20069;-73
2021/12/15 01:23:44;;;;;;;18.42;8.18;;;;;;;9.67;100.00;102589.03;5027686;28;20045;-72
2021/12/15 01:26:14;;;;;;;16.77;6.97;;;;;;;9.63;100.00;102590.88;5027189;28;20041;-73
2021/12/15 01:28:40;;;;;;;19.60;9.80;;;;;;;9.70;100.00;102588.34;5020704;28;20059;-72
2021/12/15 01:31:09;;;;;;;41.67;17.50;;;;;;;9.74;100.00;102589.25;5029832;28;20715;-70
2021/12/15 01:33:37;;;;;;;40.17;17.58;;;;;;;9.77;100.00;102588.56;5025145;28;20056;-73
2021/12/15 01:36:06;;;;;;;35.47;15.80;;;;;;;9.75;100.00;102587.28;5030794;28;20152;-73
2021/12/15 01:38:35;;;;;;;24.48;11.18;;;;;;;9.75;100.00;102590.88;5022935;28;20057;-73
2021/12/15 01:41:04;;;;;;;31.02;14.90;;;;;;;9.77;100.00;102591.34;5026240;28;20057;-73
2021/12/15 01:49:10;;;;;;;;;;;;;;;9.77;100.00;102585.81;5045650;28;20135;-73
2021/12/15 01:51:37;;;;;;;33.25;15.18;;;;;;;9.76;100.00;102573.13;5026354;28;20395;-73
2021/12/15 01:54:04;;;;;;;33.75;14.40;;;;;;;9.81;100.00;102591.44;5024748;28;20430;-73
2021/12/15 01:56:31;;;;;;;38.65;18.30;;;;;;;9.83;100.00;102589.16;5020245;28;20056;-73
2021/12/15 01:59:00;;;;;;;22.50;9.60;;;;;;;9.75;100.00;102577.03;5035125;28;20100;-73
2021/12/15 02:01:27;;;;;;;14.75;5.93;;;;;;;9.75;100.00;102584.53;5025262;28;20060;-74
2021/12/15 02:03:55;;;;;;;41.20;16.55;;;;;;;9.78;100.00;102576.34;5025773;28;20061;-72
2021/12/15 02:06:41;;;;;;;31.02;15.13;;;;;;;9.78;100.00;102578.31;5024519;28;20045;-74
2021/12/15 02:09:08;;;;;;;35.88;13.80;;;;;;;9.76;100.00;102580.63;5027172;28;20132;-73
2021/12/15 02:11:34;;;;;;;17.75;8.68;;;;;;;9.77;100.00;102580.28;5024661;28;20764;-72
2021/12/15 02:14:01;;;;;;;14.48;5.72;;;;;;;9.70;100.00;102579.25;5023225;28;20056;-73
2021/12/15 02:16:29;;;;;;;22.20;9.27;;;;;;;9.67;100.00;102579.94;5024644;28;20136;-72
2021/12/15 02:18:55;;;;;;;26.65;10.30;;;;;;;9.69;100.00;102589.47;5027342;28;20534;-73
2021/12/15 02:21:24;;;;;;;29.70;14.73;;;;;;;9.74;100.00;102583.75;5026942;28;20059;-73
2021/12/15 02:23:57;;;;;;;38.85;15.45;;;;;;;9.70;100.00;102588.34;5027742;28;20132;-72
2021/12/15 02:26:36;;;;;;;28.38;11.73;;;;;;;9.63;100.00;102588.13;5030989;28;20049;-76
2021/12/15 02:29:07;;;;;;;12.18;5.60;;;;;;;9.69;100.00;102583.16;5043741;28;20135;-73
2021/12/15 02:34:43;;;;;;;;;;;;;;;;;;;;;
2021/12/15 02:39:32;;;;;;;27.85;10.35;;;;;;;9.62;100.00;102591.22;5016877;28;20106;-74
2021/12/15 02:41:59;;;;;;;23.83;9.98;;;;;;;9.62;100.00;102592.03;5025518;28;20103;-73
2021/12/15 02:44:26;;;;;;;16.60;6.50;;;;;;;9.59;100.00;102589.16;5028497;28;20494;-72
2021/12/15 02:46:54;;;;;;;20.15;9.38;;;;;;;9.67;100.00;102591.00;5027255;28;20136;-74
2021/12/15 02:49:27;;;;;;;40.20;15.77;;;;;;;9.59;100.00;102578.88;5027067;28;20644;-73
2021/12/15 02:51:56;;;;;;;31.80;14.43;;;;;;;9.65;100.00;102585.81;5025889;28;20073;-73
2021/12/15 02:54:24;;;;;;;41.92;19.42;;;;;;;9.67;100.00;102594.56;5026192;28;20068;-73
2021/12/15 02:56:53;;;;;;;35.92;15.27;;;;;;;9.63;100.00;102588.13;5036403;28;20140;-74
2021/12/15 02:59:25;;;;;;;20.35;8.93;;;;;;;9.63;100.00;102579.84;5028168;28;20187;-73
2021/12/15 03:02:04;;;;;;;38.92;15.77;;;;;;;9.61;100.00;102582.13;5026511;28;20144;-72
2021/12/15 03:07:18;;;;;;;24.17;10.48;;;;;;;9.56;100.00;102584.31;5047526;28;20049;-73
2021/12/15 03:18:16;;;;;;;40.55;19.52;;;;;;;9.66;100.00;102578.34;5027485;28;20057;-74
2021/12/15 03:20:58;;;;;;;24.90;8.30;;;;;;;9.55;100.00;102582.72;5024305;28;20585;-73
2021/12/15 03:23:28;;;;;;;23.63;8.82;;;;;;;9.60;100.00;102588.81;5027951;28;20054;-73
2021/12/15 03:25:57;;;;;;;20.48;8.60;;;;;;;9.60;100.00;102586.06;5040688;28;20826;-73
2021/12/15 03:34:09;;;;;;;37.15;16.48;;;;;;;9.60;100.00;102588.00;5033479;28;20143;-74
2021/12/15 03:39:26;;;;;;;13.13;5.38;;;;;;;9.64;100.00;102598.03;5031129;28;20115;-73
2021/12/15 03:42:01;;;;;;;28.55;12.40;;;;;;;9.61;100.00;102584.88;5048972;28;20057;-77
2021/12/15 03:44:31;;;;;;;29.23;12.10;;;;;;;9.61;100.00;102576.59;5037840;28;20054;-71
2021/12/15 03:46:58;;;;;;;23.50;10.93;;;;;;;9.69;100.00;102597.78;5030004;28;20049;-73
2021/12/15 03:49:25;;;;;;;11.57;5.90;;;;;;;9.63;100.00;102590.88;5030072;28;20053;-74
2021/12/15 03:51:52;;;;;;;21.95;9.13;;;;;;;9.66;100.00;102584.66;5028236;28;20055;-74
2021/12/15 03:54:19;;;;;;;33.08;13.13;;;;;;;9.58;100.00;102593.06;5028645;28;20149;-72
2021/12/15 03:56:47;;;;;;;30.13;15.40;;;;;;;9.60;100.00;102588.00;5030085;28;20067;-72
2021/12/15 03:59:15;;;;;;;21.27;7.68;;;;;;;9.57;100.00;102595.03;5030062;28;20046;-74
2021/12/15 04:01:42;;;;;;;38.13;16.63;;;;;;;9.46;100.00;102604.94;5048016;28;20499;-73
2021/12/15 04:04:08;;;;;;;40.67;18.35;;;;;;;9.50;100.00;102585.69;5035309;28;20141;-73
2021/12/15 04:06:39;;;;;;;33.70;12.88;;;;;;;9.45;100.00;102586.72;5049703;28;20088;-72
2021/12/15 04:09:08;;;;;;;32.70;12.27;;;;;;;9.42;100.00;102603.97;5035813;28;20516;-73
2021/12/15 04:11:36;;;;;;;28.63;13.27;;;;;;;9.41;100.00;102596.84;5029348;28;20050;-74
2021/12/15 04:14:08;;;;;;;21.60;10.40;;;;;;;9.43;100.00;102608.38;5041923;28;20053;-73
2021/12/15 04:19:09;;;;;;;23.52;9.90;;;;;;;9.35;100.00;102611.25;5033424;28;20160;-73
2021/12/15 04:21:38;;;;;;;33.22;12.93;;;;;;;9.38;100.00;102613.34;5028506;28;20088;-73
2021/12/15 04:24:06;;;;;;;40.90;17.45;;;;;;;9.34;100.00;102604.09;5038912;28;20172;-74
2021/12/15 04:26:34;;;;;;;26.42;12.88;;;;;;;9.37;100.00;102608.94;5028751;28;20064;-72
2021/12/15 04:29:01;;;;;;;35.97;16.45;;;;;;;9.36;100.00;102610.09;5029838;28;20064;-75
2021/12/15 04:31:31;;;;;;;27.45;10.50;;;;;;;9.40;100.00;102613.78;5029272;28;20531;-73
2021/12/15 04:34:04;;;;;;;48.20;21.23;;;;;;;9.41;100.00;102613.44;5027672;28;20591;-73
2021/12/15 04:36:36;;;;;;;60.53;24.20;;;;;;;9.44;100.00;102622.97;5031269;28;20124;-73
2021/12/15 04:39:06;;;;;;;44.30;17.42;;;;;;;9.43;100.00;102618.63;5028127;28;20063;-74
2021/12/15 04:41:32;;;;;;;20.75;7.70;;;;;;;9.42;100.00;102622.53;5028271;28;20053;-74
2021/12/15 04:44:09;;;;;;;48.28;21.38;;;;;;;9.44;100.00;102620.22;5027282;28;20065;-73
2021/12/15 04:46:39;;;;;;;58.45;24.17;;;;;;;9.49;100.00;102620.00;5029597;28;20481;-72
2021/12/15 04:49:08;;;;;;;16.20;7.60;;;;;;;9.44;100.00;102621.03;5027974;28;20133;-73
2021/12/15 04:51:35;;;;;;;27.65;11.30;;;;;;;9.45;100.00;102616.34;5027008;28;20081;-72
2021/12/15 04:54:02;;;;;;;40.97;17.08;;;;;;;9.43;100.00;102624.97;5029276;28;21718;-73
2021/12/15 04:56:28;;;;;;;30.33;13.07;;;;;;;9.46;100.00;102624.28;5027264;28;20481;-73
2021/12/15 04:58:56;;;;;;;44.38;18.70;;;;;;;9.49;100.00;102628.31;5029063;28;20168;-73
2021/12/15 05:01:24;;;;;;;37.20;13.98;;;;;;;9.47;100.00;102625.88;5041933;28;20135;-74
2021/12/15 05:03:51;;;;;;;30.27;10.40;;;;;;;9.47;100.00;102634.16;5047615;28;20126;-72
2021/12/15 05:06:21;;;;;;;61.20;25.08;;;;;;;9.50;100.00;102633.50;5037619;28;20512;-72
2021/12/15 05:08:49;;;;;;;27.33;11.98;;;;;;;9.49;100.00;102637.38;5036450;28;20100;-73
2021/12/15 05:11:16;;;;;;;46.75;17.38;;;;;;;9.49;100.00;102636.59;5028607;28;20072;-74
2021/12/15 05:13:43;;;;;;;28.65;12.38;;;;;;;9.46;100.00;102629.81;5028792;28;20111;-71
2021/12/15 05:16:10;;;;;;;36.50;14.52;;;;;;;9.42;100.00;102634.38;5027988;28;20510;-73
2021/12/15 05:18:37;;;;;;;40.25;16.05;;;;;;;9.42;100.00;102637.16;5028333;28;20596;-73
2021/12/15 05:21:06;;;;;;;19.60;7.97;;;;;;;9.46;100.00;102640.84;5028098;28;20077;-72
2021/12/15 05:23:39;;;;;;;34.92;15.68;;;;;;;9.48;100.00;102638.53;5028811;28;20060;-72
2021/12/15 05:26:06;;;;;;;41.10;17.60;;;;;;;9.46;100.00;102640.03;5031661;28;20516;-72
2021/12/15 05:28:33;;;;;;;26.63;12.07;;;;;;;9.41;100.00;102635.53;5026005;28;20129;-72
2021/12/15 05:30:59;;;;;;;29.08;12.85;;;;;;;9.39;100.00;102643.34;5027048;28;20089;-72
2021/12/15 05:33:26;;;;;;;22.17;9.18;;;;;;;9.44;100.00;102643.16;5027465;28;20493;-73
2021/12/15 05:35:55;;;;;;;40.83;16.60;;;;;;;9.46;100.00;102640.84;5028179;28;20049;-73
2021/12/15 05:38:23;;;;;;;56.45;22.85;;;;;;;9.46;100.00;102638.09;5027484;28;20041;-74
2021/12/15 05:40:50;;;;;;;53.50;21.73;;;;;;;9.41;100.00;102643.81;5032301;28;20140;-72
2021/12/15 05:43:17;;;;;;;45.03;17.63;;;;;;;9.46;100.00;102651.09;5027633;28;20053;-72
2021/12/15 05:45:44;;;;;;;39.45;15.27;;;;;;;9.45;100.00;102644.75;5027485;28;20128;-72
2021/12/15 05:48:13;;;;;;;58.55;24.58;;;;;;;9.47;100.00;102652.69;5027752;28;20653;-71
2021/12/15 05:50:42;;;;;;;52.58;22.40;;;;;;;9.46;100.00;102651.91;5027510;28;20080;-73
2021/12/15 05:53:08;;;;;;;17.95;8.20;;;;;;;9.43;100.00;102660.88;5023489;28;20467;-73
2021/12/15 05:55:37;;;;;;;22.13;8.68;;;;;;;9.44;100.00;102653.38;5039912;28;20050;-73
2021/12/15 05:58:04;;;;;;;32.10;12.68;;;;;;;9.44;100.00;102648.69;5037701;28;20045;-72
2021/12/15 06:00:34;;;;;;;35.15;14.45;;;;;;;9.46;100.00;102648.34;5027646;28;20056;-73
2021/12/15 06:03:02;;;;;;;27.20;10.20;;;;;;;9.44;100.00;102658.91;5033775;28;20049;-72
2021/12/15 06:05:30;;;;;;;29.65;12.25;;;;;;;9.46;100.00;102651.09;5028146;28;20135;-72
2021/12/15 06:07:57;;;;;;;52.38;23.40;;;;;;;9.50;100.00;102658.34;5026858;28;20060;-72
2021/12/15 06:10:27;;;;;;;46.95;19.70;;;;;;;9.50;100.00;102660.31;5028559;28;20041;-72
2021/12/15 06:12:55;;;;;;;14.02;6.10;;;;;;;9.47;100.00;102656.28;5026514;28;20122;-72
2021/12/15 06:15:24;;;;;;;28.08;10.68;;;;;;;9.45;100.00;102660.53;5025773;28;20056;-72
2021/12/15 06:18:04;;;;;;;45.47;19.67;;;;;;;9.53;100.00;102657.69;5028032;28;20053;-72
2021/12/15 06:20:32;;;;;;;32.92;13.40;;;;;;;9.51;100.00;102659.97;5027981;28;20053;-73
2021/12/15 06:23:00;;;;;;;32.63;12.77;;;;;;;9.49;100.00;102655.94;5032496;28;20068;-73
2021/12/15 06:25:28;;;;;;;26.27;10.50;;;;;;;9.49;100.00;102655.94;5027885;28;20131;-72
2021/12/15 06:27:55;;;;;;;14.57;5.55;;;;;;;9.49;100.00;102664.22;5028351;28;20053;-72
2021/12/15 06:30:22;;;;;;;28.85;12.52;;;;;;;9.51;100.00;102664.69;5015868;28;20056;-71
2021/12/15 06:32:49;;;;;;;34.97;15.40;;;;;;;9.50;100.00;102680.47;5025785;28;20141;-72
2021/12/15 06:35:15;;;;;;;37.25;12.90;;;;;;;9.53;100.00;102667.91;5027545;28;20045;-72
2021/12/15 06:37:42;;;;;;;36.55;15.15;;;;;;;9.53;100.00;102673.44;5032801;28;20080;-72
2021/12/15 06:40:10;;;;;;;30.88;13.98;;;;;;;9.54;100.00;102670.34;5042215;28;20186;-71
2021/12/15 06:42:39;;;;;;;50.65;18.85;;;;;;;9.53;100.00;102668.72;5040554;28;20049;-71
2021/12/15 06:45:07;;;;;;;18.17;10.07;;;;;;;9.53;100.00;102678.97;5024661;28;20132;-72
2021/12/15 06:58:12;;;;;;;44.45;18.60;;;;;;;9.52;100.00;102680.91;5031446;28;20053;-73
2021/12/15 07:00:45;;;;;;;51.33;21.08;;;;;;;9.59;100.00;102696.94;5035442;28;20053;-72
2021/12/15 07:03:13;;;;;;;50.17;21.30;;;;;;;9.56;100.00;102690.16;5036979;28;20087;-73
2021/12/15 07:05:40;;;;;;;25.35;10.63;;;;;;;9.53;100.00;102696.38;5038544;28;20049;-75
2021/12/15 07:08:08;;;;;;;55.53;23.83;;;;;;;9.64;100.00;102685.66;5030658;28;20045;-72
2021/12/15 07:10:38;;;;;;;52.28;21.38;;;;;;;9.61;100.00;102698.22;5030649;28;20689;-73
2021/12/15 07:13:05;;;;;;;30.98;14.10;;;;;;;9.52;100.00;102694.72;5029748;28;20056;-74
2021/12/15 07:15:34;;;;;;;49.67;17.63;;;;;;;9.61;100.00;102698.22;5031239;28;20041;-73
2021/12/15 07:18:04;;;;;;;16.83;7.70;;;;;;;9.55;100.00;102699.56;5041472;28;20059;-74
2021/12/15 07:23:03;;;;;;;33.72;16.48;;;;;;;9.62;100.00;102699.81;5036189;28;20140;-73
2021/12/15 07:25:30;;;;;;;14.00;6.30;;;;;;;9.59;100.00;102697.72;5043404;28;20048;-72
2021/12/15 07:27:58;;;;;;;15.57;6.70;;;;;;;9.58;100.00;102687.03;5031138;28;20064;-73
2021/12/15 07:30:27;;;;;;;26.88;12.02;;;;;;;9.61;100.00;102702.91;5025881;28;20058;-73
2021/12/15 07:32:54;;;;;;;46.92;21.25;;;;;;;9.66;100.00;102706.28;5026645;28;20577;-73
2021/12/15 07:35:22;;;;;;;30.25;9.82;;;;;;;9.60;100.00;102704.91;5029996;28;20517;-74
2021/12/15 07:37:49;;;;;;;17.20;6.65;;;;;;;9.61;100.00;102709.28;5032690;28;20053;-73
2021/12/15 07:40:21;;;;;;;22.30;9.18;;;;;;;9.60;100.00;102713.19;5030608;28;20141;-77
2021/12/15 07:42:57;;;;;;;58.22;22.80;;;;;;;9.67;100.00;102712.63;5020541;28;20049;-74
2021/12/15 07:45:25;;;;;;;17.67;6.03;;;;;;;9.63;100.00;102720.81;5025813;28;20049;-73
2021/12/15 07:47:54;;;;;;;54.03;23.85;;;;;;;9.67;100.00;102718.13;5028150;28;20046;-74
2021/12/15 07:50:21;;;;;;;39.72;16.40;;;;;;;9.61;100.00;102712.03;5018554;28;20057;-73
2021/12/15 07:52:50;;;;;;;18.38;6.45;;;;;;;9.62;100.00;102719.16;5022862;28;20053;-72
2021/12/15 07:55:17;;;;;;;19.45;9.27;;;;;;;9.71;100.00;102714.34;5019181;28;20045;-67
2021/12/15 07:57:45;;;;;;;17.20;7.15;;;;;;;9.72;100.00;102718.72;5030182;28;20131;-70
2021/12/15 08:00:13;;;;;;;42.13;16.88;;;;;;;9.72;100.00;102715.16;5027115;28;20087;-75
2021/12/15 08:02:41;;;;;;;31.30;11.40;;;;;;;9.64;100.00;102711.34;5024378;28;20799;-74
2021/12/15 08:05:08;;;;;;;40.67;17.10;;;;;;;9.66;100.00;102717.31;5024017;28;20050;-70
2021/12/15 08:07:35;;;;;;;26.52;11.40;;;;;;;9.64;100.00;102719.66;5034168;28;20156;-73
2021/12/15 08:10:08;;;;;;;29.35;10.35;;;;;;;9.68;100.00;102719.75;5024657;28;20148;-72
2021/12/15 08:12:35;;;;;;;28.27;11.30;;;;;;;9.64;100.00;102714.13;5021537;28;20056;-73
2021/12/15 08:15:02;;;;;;;35.08;13.63;;;;;;;9.62;100.00;102716.41;5029221;28;20161;-71
2021/12/15 08:17:28;;;;;;;21.15;8.63;;;;;;;9.64;100.00;102702.25;5023060;28;20064;-71
2021/12/15 08:19:55;;;;;;;16.80;7.38;;;;;;;9.70;100.00;102718.28;5021162;28;20060;-72
2021/12/15 08:22:22;;;;;;;25.88;10.90;;;;;;;9.72;100.00;102720.69;5019799;28;20441;-71
2021/12/15 08:24:48;;;;;;;38.33;16.38;;;;;;;9.69;100.00;102722.16;5027571;28;20151;-71
2021/12/15 08:27:20;;;;;;;38.40;17.05;;;;;;;9.70;100.00;102723.00;5020854;28;20431;-72
2021/12/15 08:29:46;;;;;;;23.95;9.95;;;;;;;9.71;100.00;102719.06;5026526;28;20049;-72
2021/12/15 08:32:13;;;;;;;29.83;13.70;;;;;;;9.72;100.00;102724.25;5027664;28;20053;-73
2021/12/15 08:34:40;;;;;;;38.83;16.52;;;;;;;9.70;100.00;102723.00;5028997;28;20132;-71
2021/12/15 08:37:13;;;;;;;54.50;22.48;;;;;;;9.78;100.00;102719.31;5027036;28;20061;-71
2021/12/15 08:39:41;;;;;;;22.48;10.27;;;;;;;9.76;100.00;102725.19;5038169;28;20045;-73
2021/12/15 08:42:09;;;;;;;52.13;21.42;;;;;;;9.79;100.00;102732.78;5027024;28;20065;-71
2021/12/15 08:44:36;;;;;;;50.05;19.42;;;;;;;9.77;100.00;102726.81;5029512;28;20041;-75
2021/12/15 08:47:05;;;;;;;46.10;17.67;;;;;;;9.82;100.00;102742.38;5029189;28;20049;-71
2021/12/15 08:49:32;;;;;;;28.40;11.52;;;;;;;9.77;100.00;102740.63;5025175;28;20053;-72
2021/12/15 08:51:59;;;;;;;35.92;15.25;;;;;;;9.76;100.00;102749.28;5027730;28;20095;-71
2021/12/15 08:54:25;;;;;;;29.63;12.27;;;;;;;9.83;100.00;102743.97;5022969;28;20060;-71
2021/12/15 08:56:53;;;;;;;57.78;22.25;;;;;;;9.88;100.00;102747.31;5029122;28;20178;-72
2021/12/15 08:59:20;;;;;;;40.33;17.05;;;;;;;9.79;100.00;102745.81;5032912;28;20508;-73
2021/12/15 09:01:48;;;;;;;25.75;11.95;;;;;;;9.88;100.00;102746.50;5029768;28;20046;-71
2021/12/15 09:04:15;;;;;;;41.00;16.38;;;;;;;9.78;100.00;102750.53;5039893;28;20156;-71
2021/12/15 09:06:44;;;;;;;54.03;23.27;;;;;;;9.90;100.00;102756.09;5028474;28;20642;-72
2021/12/15 09:09:13;;;;;;;65.63;26.02;;;;;;;9.91;100.00;102738.34;5025515;28;20041;-75
2021/12/15 09:11:41;;;;;;;32.35;13.20;;;;;;;9.81;100.00;102744.31;5026713;28;20053;-73
2021/12/15 09:14:11;;;;;;;43.80;17.08;;;;;;;9.89;100.00;102760.00;5033119;28;20059;-72
2021/12/15 09:16:40;;;;;;;43.58;18.35;;;;;;;9.91;100.00;102757.69;5040034;28;20073;-73
2021/12/15 09:19:07;;;;;;;40.45;17.20;;;;;;;9.83;100.00;102761.34;5021100;28;20447;-72
2021/12/15 09:21:35;;;;;;;35.70;14.93;;;;;;;9.80;100.00;102752.97;5036698;28;20131;-71
2021/12/15 09:24:05;;;;;;;23.27;11.00;;;;;;;9.80;100.00;102747.44;5029674;28;20050;-72
2021/12/15 09:26:32;;;;;;;61.40;27.83;;;;;;;9.91;100.00;102754.13;5024276;28;20510;-71
2021/12/15 09:29:00;;;;;;;38.40;14.70;;;;;;;9.86;100.00;102760.69;5024305;28;20148;-72
2021/12/15 09:31:26;;;;;;;57.28;23.33;;;;;;;9.89;100.00;102757.22;5023643;28;20549;-76
2021/12/15 09:33:55;;;;;;;40.63;17.42;;;;;;;9.84;100.00;102763.00;5021558;28;20057;-72
2021/12/15 09:36:25;;;;;;;65.50;24.80;;;;;;;9.94;100.00;102765.31;5032462;28;20490;-74
2021/12/15 09:38:57;;;;;;;66.85;28.05;;;;;;;10.02;100.00;102767.16;5028915;28;20131;-71
2021/12/15 09:41:27;;;;;;;47.08;17.05;;;;;;;9.95;100.00;102764.16;5027989;28;20077;-74
2021/12/15 09:43:56;;;;;;;26.15;11.55;;;;;;;9.94;100.00;102759.78;5025661;28;20053;-72
2021/12/15 09:57:24;;;;;;;29.80;13.00;;;;;;;10.01;100.00;102770.25;5032427;28;20121;-73
2021/12/15 10:02:48;;;;;;;39.53;16.02;;;;;;;10.00;100.00;102766.69;5021103;28;20060;-76
2021/12/15 10:05:44;;;;;;;36.60;14.95;;;;;;;10.08;100.00;102757.53;5016285;28;20107;-74
2021/12/15 10:19:42;;;;;;;29.25;13.55;;;;;;;10.09;100.00;102772.13;5026810;28;20136;-72
2021/12/15 10:22:17;;;;;;;55.13;26.20;;;;;;;10.10;100.00;102762.72;5030199;28;20057;-72
2021/12/15 10:24:54;;;;;;;31.02;13.77;;;;;;;10.06;100.00;102762.56;5012783;28;20104;-73
2021/12/15 10:27:35;;;;;;;41.40;15.98;;;;;;;10.10;100.00;102755.19;5024897;28;20045;-71
2021/12/15 10:30:11;;;;;;;41.67;15.25;;;;;;;10.09;100.00;102755.53;5025319;28;20046;-74
2021/12/15 10:32:40;;;;;;;58.15;24.23;;;;;;;10.15;100.00;102754.16;5034022;28;20133;-72
2021/12/15 10:35:12;;;;;;;51.97;21.70;;;;;;;10.23;100.00;102769.88;5054345;28;20052;-73
2021/12/15 10:37:41;;;;;;;43.25;17.83;;;;;;;10.16;100.00;102764.88;5033209;28;20071;-73
2021/12/15 10:40:17;;;;;;;51.15;22.42;;;;;;;10.09;100.00;102764.66;5031403;28;20053;-72
2021/12/15 10:42:44;;;;;;;39.92;16.38;;;;;;;10.20;100.00;102760.28;5037398;28;20080;-76
2021/12/15 10:45:13;;;;;;;27.50;12.13;;;;;;;10.15;100.00;102763.28;5033058;28;20050;-71
2021/12/15 10:47:43;;;;;;;48.40;17.73;;;;;;;10.17;100.00;102772.03;5023898;28;20085;-72
2021/12/15 10:50:20;;;;;;;56.63;18.27;;;;;;;10.24;100.00;102764.00;5050367;28;20049;-72
2021/12/15 10:52:57;;;;;;;50.47;19.27;;;;;;;10.11;100.00;102776.19;5031473;28;20144;-73
2021/12/15 10:55:36;;;;;;;37.90;13.80;;;;;;;10.23;100.00;102767.09;5032494;28;20501;-72
2021/12/15 10:58:37;;;;;;;53.45;19.38;;;;;;;10.27;100.00;102762.47;5039124;28;20068;-74
2021/12/15 11:01:27;;;;;;;40.22;16.98;;;;;;;10.14;100.00;102764.44;5031572;28;20132;-73
2021/12/15 11:03:54;;;;;;;26.75;10.05;;;;;;;10.16;100.00;102756.59;5024365;28;20150;-72
2021/12/15 11:06:27;;;;;;;38.47;16.27;;;;;;;10.16;100.00;102769.63;5034158;28;20506;-73
2021/12/15 11:09:39;;;;;;;41.63;19.20;;;;;;;10.22;100.00;102763.50;5027650;28;20061;-71
2021/12/15 11:12:23;;;;;;;44.50;17.67;;;;;;;10.20;100.00;102757.50;5002320;28;20053;-73
2021/12/15 11:14:57;;;;;;;55.90;21.02;;;;;;;10.26;100.00;102763.66;5023140;28;20683;-72
2021/12/15 11:17:35;;;;;;;33.03;13.77;;;;;;;10.20;100.00;102776.88;5028904;28;20109;-71
2021/12/15 11:20:31;;;;;;;34.78;13.35;;;;;;;10.20;100.00;102765.03;5036808;28;20049;-75
2021/12/15 11:23:03;;;;;;;33.33;14.10;;;;;;;10.24;100.00;102758.47;5026463;28;20458;-72
2021/12/15 11:25:31;;;;;;;31.08;12.57;;;;;;;10.26;100.00;102763.66;5017313;28;20161;-72
2021/12/15 11:28:10;;;;;;;70.78;28.20;;;;;;;10.28;100.00;102756.59;5025953;28;20077;-71
2021/12/15 11:30:36;;;;;;;54.17;23.58;;;;;;;10.27;100.00;102759.72;5045379;28;20048;-73
2021/12/15 11:33:19;;;;;;;35.28;14.45;;;;;;;10.23;100.00;102769.88;5043452;28;20140;-73
2021/12/15 11:36:09;;;;;;;40.13;18.13;;;;;;;10.32;100.00;102768.59;5017387;28;20073;-73
2021/12/15 11:38:35;;;;;;;40.33;15.48;;;;;;;10.29;100.00;102758.22;5022158;28;20132;-73
2021/12/15 11:41:22;;;;;;;42.55;19.23;;;;;;;10.29;100.00;102751.84;5031123;28;20072;-74
2021/12/15 11:43:52;;;;;;;24.70;9.50;;;;;;;10.30;100.00;102756.25;5023969;28;20242;-74
2021/12/15 11:46:20;;;;;;;44.30;18.92;;;;;;;10.32;100.00;102753.94;5028555;28;20156;-73
2021/12/15 11:48:50;;;;;;;42.25;18.25;;;;;;;10.28;100.00;102750.25;5024632;28;20064;-72
2021/12/15 11:51:43;;;;;;;43.75;18.73;;;;;;;10.35;100.00;102759.59;5027218;28;20528;-71
2021/12/15 11:54:19;;;;;;;19.40;9.20;;;;;;;10.28;100.00;102740.00;5025918;28;20056;-75
2021/12/15 11:56:53;;;;;;;48.30;22.60;;;;;;;10.35;100.00;102745.75;5026540;28;20085;-70
2021/12/15 11:59:22;;;;;;;37.73;15.20;;;;;;;10.33;100.00;102747.28;5026055;28;20503;-72
2021/12/15 12:01:59;;;;;;;66.95;25.50;;;;;;;10.37;100.00;102740.66;5025613;28;20539;-71
2021/12/15 12:04:36;;;;;;;58.35;26.85;;;;;;;10.46;100.00;102748.84;5029386;28;20047;-71
2021/12/15 12:07:10;;;;;;;45.58;17.20;;;;;;;10.41;100.00;102755.44;5020973;28;20157;-73
2021/12/15 12:09:39;;;;;;;28.20;11.15;;;;;;;10.40;100.00;102758.56;5027316;28;20073;-73
2021/12/15 12:12:07;;;;;;;11.23;6.35;;;;;;;10.41;100.00;102752.69;5026083;28;20524;-72
2021/12/15 12:17:12;;;;;;;37.88;15.23;;;;;;;10.40;100.00;102745.50;5025744;28;20073;-73
2021/12/15 12:19:46;;;;;;;61.28;27.30;;;;;;;10.53;100.00;102749.88;5027721;28;20069;-72
2021/12/15 12:22:15;;;;;;;36.55;13.07;;;;;;;10.41;100.00;102738.84;5023073;28;20054;-72
2021/12/15 12:24:44;;;;;;;21.52;8.88;;;;;;;10.48;100.00;102741.84;5025218;28;20712;-70
2021/12/15 12:27:11;;;;;;;57.30;25.42;;;;;;;10.53;100.00;102741.59;5025912;28;20132;-69
2021/12/15 12:29:38;;;;;;;36.97;14.07;;;;;;;10.50;100.00;102739.50;5023343;28;20161;-73
2021/12/15 12:32:05;;;;;;;23.67;9.38;;;;;;;10.56;100.00;102740.06;5028467;28;20052;-74
2021/12/15 12:34:32;;;;;;;28.30;13.48;;;;;;;10.52;100.00;102733.63;5024232;28;20718;-72
2021/12/15 12:36:59;;;;;;;65.13;24.75;;;;;;;10.60;100.00;102738.25;5027630;28;20583;-72
2021/12/15 12:39:33;;;;;;;17.67;7.70;;;;;;;10.59;100.00;102746.91;5030344;28;20061;-72
2021/12/15 12:42:00;;;;;;;125.72;26.38;;;;;;;10.61;100.00;102744.56;5025688;28;20140;-70
2021/12/15 12:44:35;;;;;;;148.27;37.13;;;;;;;10.64;100.00;102739.16;5028360;28;20087;-72